Time;durP1;ratioP1;P1;durP2;ratioP2;P2;SDS_P1;SDS_P2;PMS_P1;PMS_P2;Temp;Humidity;BMP_temperature;BMP_pressure;BME280_temperature;BME280_humidity;BME280_pressure;Samples;Min_cycle;Max_cycle;Signal;HPM_P1;HPM_P2
2023/11/13 00:02:01;;;;;;;7.37;3.40;;;4.60;99.90;;;;;;5033655;28;20433;-50
2023/11/13 00:04:26;;;;;;;8.33;3.43;;;4.60;99.90;;;;;;5033689;28;20033;-49
2023/11/13 00:06:52;;;;;;;7.20;3.07;;;4.60;99.90;;;;;;5033437;28;20394;-52
2023/11/13 00:09:18;;;;;;;9.80;3.73;;;4.60;99.90;;;;;;5032867;28;20040;-53
2023/11/13 00:11:43;;;;;;;8.87;3.70;;;4.70;99.90;;;;;;5032885;28;20036;-54
2023/11/13 00:14:09;;;;;;;12.40;4.00;;;4.70;99.90;;;;;;5033164;28;20047;-51
2023/11/13 00:16:35;;;;;;;12.03;4.10;;;4.70;99.90;;;;;;5033124;28;20089;-54
2023/11/13 00:19:01;;;;;;;7.90;3.07;;;4.60;99.90;;;;;;5032653;28;20017;-51
2023/11/13 00:21:27;;;;;;;8.17;3.63;;;4.60;99.90;;;;;;5033104;28;20451;-54
2023/11/13 00:23:53;;;;;;;9.60;3.67;;;4.60;99.90;;;;;;5032659;28;20064;-50
2023/11/13 00:26:18;;;;;;;8.27;3.80;;;4.50;99.90;;;;;;5033075;28;20029;-51
2023/11/13 00:28:51;;;;;;;9.30;3.40;;;4.50;99.90;;;;;;5031362;28;20441;-51
2023/11/13 00:31:17;;;;;;;10.20;3.97;;;4.50;99.90;;;;;;5015284;28;20037;-50
2023/11/13 00:33:43;;;;;;;8.43;3.83;;;4.50;99.90;;;;;;5031617;28;20033;-53
2023/11/13 00:36:08;;;;;;;7.60;3.07;;;4.50;99.90;;;;;;5033123;28;20379;-52
2023/11/13 00:38:34;;;;;;;7.97;3.40;;;4.60;99.90;;;;;;5030838;28;20025;-54
2023/11/13 00:41:00;;;;;;;7.53;3.43;;;4.60;99.90;;;;;;5032689;28;20025;-54
2023/11/13 00:43:26;;;;;;;9.03;3.40;;;4.70;99.90;;;;;;5032607;28;20032;-52
2023/11/13 00:45:52;;;;;;;9.70;3.37;;;4.80;99.90;;;;;;5031656;28;20029;-55
2023/11/13 00:48:18;;;;;;;7.53;3.03;;;4.90;99.90;;;;;;5031133;28;20217;-54
2023/11/13 00:50:44;;;;;;;6.37;3.03;;;4.90;99.90;;;;;;5031849;28;20422;-55
2023/11/13 00:53:12;;;;;;;9.80;2.93;;;5.00;99.90;;;;;;5031333;28;20030;-55
2023/11/13 00:55:39;;;;;;;5.78;3.30;;;5.00;99.90;;;;;;5033048;28;20044;-53
2023/11/13 00:58:05;;;;;;;6.37;3.27;;;5.10;99.90;;;;;;5033106;28;20502;-52
2023/11/13 01:00:31;;;;;;;6.70;2.80;;;5.10;99.90;;;;;;5032721;28;20076;-49
2023/11/13 01:02:57;;;;;;;10.60;3.40;;;5.20;99.90;;;;;;5032426;28;20433;-50
2023/11/13 01:05:24;;;;;;;6.97;2.80;;;5.30;99.90;;;;;;5032698;28;20096;-55
2023/11/13 01:07:49;;;;;;;5.97;2.90;;;5.30;99.90;;;;;;5030912;28;20029;-50
2023/11/13 01:10:16;;;;;;;10.70;2.63;;;5.50;99.90;;;;;;5032191;28;20029;-49
2023/11/13 01:12:42;;;;;;;5.97;3.10;;;5.60;99.90;;;;;;5030965;28;20505;-54
2023/11/13 01:15:09;;;;;;;8.53;3.27;;;5.60;99.90;;;;;;5031487;28;20061;-51
2023/11/13 01:17:35;;;;;;;6.63;2.57;;;5.60;99.90;;;;;;5030736;28;20520;-53
2023/11/13 01:20:03;;;;;;;9.90;2.83;;;5.70;99.90;;;;;;5032274;28;20136;-54
2023/11/13 01:22:30;;;;;;;7.03;2.67;;;5.70;99.90;;;;;;5031257;28;20559;-51
2023/11/13 01:24:55;;;;;;;7.40;3.07;;;5.80;99.90;;;;;;5030960;28;20505;-53
2023/11/13 01:27:22;;;;;;;6.67;2.63;;;5.70;99.90;;;;;;5030966;28;20057;-50
2023/11/13 01:29:48;;;;;;;9.70;3.77;;;5.80;99.90;;;;;;5031967;28;20037;-52
2023/11/13 01:32:14;;;;;;;8.03;3.07;;;5.80;99.90;;;;;;5031279;28;20092;-52
2023/11/13 01:34:39;;;;;;;8.07;2.67;;;5.80;99.90;;;;;;5031435;28;20037;-49
2023/11/13 01:37:05;;;;;;;6.83;2.80;;;5.90;99.90;;;;;;5033886;28;20029;-51
2023/11/13 01:39:30;;;;;;;6.27;2.70;;;5.90;99.90;;;;;;5033966;28;20052;-53
2023/11/13 01:41:57;;;;;;;6.97;2.80;;;5.90;99.90;;;;;;5035810;28;20079;-53
2023/11/13 01:44:24;;;;;;;7.10;2.40;;;5.80;99.90;;;;;;5034253;28;20429;-50
2023/11/13 01:46:49;;;;;;;8.60;2.70;;;5.90;99.90;;;;;;5034439;28;20030;-51
2023/11/13 01:49:16;;;;;;;5.90;2.70;;;5.80;99.90;;;;;;5033918;28;20490;-50
2023/11/13 01:51:42;;;;;;;9.97;3.17;;;5.70;99.90;;;;;;5033958;28;20057;-50
2023/11/13 01:54:08;;;;;;;8.30;2.60;;;5.70;99.90;;;;;;5034240;28;20072;-51
2023/11/13 01:56:35;;;;;;;6.70;2.23;;;5.70;99.90;;;;;;5034373;28;20029;-50
2023/11/13 01:59:00;;;;;;;6.17;2.90;;;5.90;99.90;;;;;;5034803;28;20065;-49
2023/11/13 02:01:28;;;;;;;5.20;2.00;;;5.90;99.90;;;;;;5033860;28;20563;-52
2023/11/13 02:03:53;;;;;;;6.20;2.50;;;5.90;99.90;;;;;;5034116;28;20033;-51
2023/11/13 02:06:20;;;;;;;9.93;2.40;;;5.90;99.90;;;;;;5034183;28;20440;-50
2023/11/13 02:08:46;;;;;;;8.60;2.53;;;6.00;99.90;;;;;;5033175;28;20540;-50
2023/11/13 02:11:12;;;;;;;4.63;2.10;;;6.00;99.90;;;;;;5033654;28;20052;-51
2023/11/13 02:13:38;;;;;;;4.33;1.90;;;5.90;99.90;;;;;;5035256;28;20040;-49
2023/11/13 02:16:05;;;;;;;5.00;2.27;;;5.90;99.90;;;;;;5034009;28;20029;-49
2023/11/13 02:18:37;;;;;;;5.27;2.13;;;6.00;99.90;;;;;;5032732;28;20517;-50
2023/11/13 02:21:03;;;;;;;5.77;2.20;;;6.00;99.90;;;;;;5033618;28;20061;-52
2023/11/13 02:23:29;;;;;;;5.23;2.20;;;6.00;99.90;;;;;;5033655;28;20065;-51
2023/11/13 02:25:56;;;;;;;8.53;2.47;;;6.00;99.90;;;;;;5034049;28;20701;-50
2023/11/13 02:28:22;;;;;;;4.60;2.27;;;6.00;99.90;;;;;;5034671;28;20124;-49
2023/11/13 02:30:48;;;;;;;4.63;2.10;;;6.10;99.90;;;;;;5034520;28;20125;-52
2023/11/13 02:33:14;;;;;;;5.83;2.30;;;6.10;99.90;;;;;;5033315;28;20124;-52
2023/11/13 02:35:40;;;;;;;4.30;2.40;;;6.10;99.90;;;;;;5033217;28;20160;-51
2023/11/13 02:38:06;;;;;;;5.70;2.20;;;6.00;99.90;;;;;;5033073;28;20124;-51
2023/11/13 02:40:32;;;;;;;3.47;1.70;;;6.00;99.90;;;;;;5033235;28;20045;-50
2023/11/13 02:42:58;;;;;;;5.43;2.40;;;6.00;99.90;;;;;;5034514;28;20100;-51
2023/11/13 02:45:24;;;;;;;6.03;2.10;;;6.10;99.90;;;;;;5034858;28;20041;-52
2023/11/13 02:47:53;;;;;;;5.70;2.53;;;6.10;99.90;;;;;;5034172;28;20025;-55
2023/11/13 02:50:20;;;;;;;4.40;2.00;;;6.10;99.90;;;;;;5033302;28;20029;-52
2023/11/13 02:52:47;;;;;;;3.97;1.80;;;6.10;99.90;;;;;;5034480;28;20025;-50
2023/11/13 02:55:13;;;;;;;4.67;2.13;;;6.10;99.90;;;;;;5035082;28;20080;-53
2023/11/13 02:57:39;;;;;;;4.83;2.10;;;6.20;99.90;;;;;;5034265;28;20486;-54
2023/11/13 03:00:06;;;;;;;4.90;1.83;;;6.30;99.90;;;;;;5033178;28;20418;-54
2023/11/13 03:02:33;;;;;;;5.23;2.07;;;6.30;99.90;;;;;;5033122;28;20033;-55
2023/11/13 03:04:59;;;;;;;4.67;1.87;;;6.40;99.90;;;;;;5035180;28;20093;-52
2023/11/13 03:07:25;;;;;;;7.53;2.73;;;6.40;99.90;;;;;;5016590;28;20057;-50
2023/11/13 03:09:54;;;;;;;5.63;1.90;;;6.40;99.90;;;;;;5032608;28;20563;-51
2023/11/13 03:12:21;;;;;;;3.67;1.77;;;6.50;99.90;;;;;;5034590;28;20034;-52
2023/11/13 03:14:50;;;;;;;4.33;1.90;;;6.50;99.90;;;;;;5034359;28;20124;-51
2023/11/13 03:17:16;;;;;;;5.70;1.83;;;6.60;99.90;;;;;;5032462;28;20398;-52
2023/11/13 03:19:42;;;;;;;3.77;1.70;;;6.60;99.90;;;;;;5032504;28;20474;-49
2023/11/13 03:22:08;;;;;;;4.17;1.90;;;6.60;99.90;;;;;;5032640;28;20467;-50
2023/11/13 03:24:34;;;;;;;4.63;1.50;;;6.60;99.90;;;;;;5032987;28;20053;-49
2023/11/13 03:26:59;;;;;;;4.57;1.73;;;6.60;99.90;;;;;;5034053;28;20393;-51
2023/11/13 03:29:25;;;;;;;6.53;1.43;;;6.70;99.90;;;;;;5033676;28;20071;-49
2023/11/13 03:31:51;;;;;;;4.13;1.60;;;6.80;99.90;;;;;;5032475;28;20031;-49
2023/11/13 03:34:18;;;;;;;5.60;1.90;;;6.80;99.90;;;;;;5034014;28;20034;-49
2023/11/13 03:36:44;;;;;;;5.63;1.70;;;6.80;99.90;;;;;;5032418;28;20061;-49
2023/11/13 03:39:10;;;;;;;5.03;1.90;;;6.80;99.90;;;;;;5032220;28;20025;-49
2023/11/13 03:41:37;;;;;;;3.53;1.33;;;6.90;99.90;;;;;;5033522;28;20037;-53
2023/11/13 03:44:03;;;;;;;4.53;1.80;;;6.90;99.90;;;;;;5033810;28;20405;-49
2023/11/13 03:46:29;;;;;;;4.63;1.70;;;7.00;99.90;;;;;;5032100;28;20037;-53
2023/11/13 03:48:55;;;;;;;4.17;1.90;;;7.00;99.90;;;;;;5032079;28;20064;-50
2023/11/13 03:51:24;;;;;;;3.40;1.70;;;7.10;99.90;;;;;;5032175;28;20033;-51
2023/11/13 03:53:53;;;;;;;3.13;1.67;;;7.10;99.90;;;;;;5033284;28;20106;-52
2023/11/13 03:56:20;;;;;;;4.20;1.77;;;7.10;99.90;;;;;;5032243;28;20063;-49
2023/11/13 03:58:46;;;;;;;5.97;1.97;;;7.10;99.90;;;;;;5032717;28;20032;-49
2023/11/13 04:01:13;;;;;;;5.67;1.97;;;7.10;99.90;;;;;;5032371;28;20402;-52
2023/11/13 04:03:40;;;;;;;3.95;2.13;;;7.20;99.90;;;;;;5032312;28;20504;-51
2023/11/13 04:06:06;;;;;;;3.47;1.63;;;7.20;99.90;;;;;;5031999;28;20044;-51
2023/11/13 04:08:32;;;;;;;5.90;2.03;;;7.20;99.90;;;;;;5033048;28;20021;-49
2023/11/13 04:10:58;;;;;;;4.63;2.20;;;7.20;99.90;;;;;;5032255;28;20437;-52
2023/11/13 04:13:24;;;;;;;4.47;1.93;;;7.10;99.90;;;;;;5033160;28;20025;-49
2023/11/13 04:15:51;;;;;;;6.50;2.47;;;7.20;99.90;;;;;;5032879;28;20064;-49
2023/11/13 04:18:17;;;;;;;4.13;2.30;;;7.10;99.90;;;;;;5031193;28;20029;-51
2023/11/13 04:20:44;;;;;;;7.20;2.47;;;7.10;99.90;;;;;;5032039;28;20021;-50
2023/11/13 04:23:09;;;;;;;5.23;2.40;;;7.00;99.90;;;;;;5032910;28;20029;-53
2023/11/13 04:25:35;;;;;;;4.77;2.00;;;7.00;99.90;;;;;;5032835;28;20048;-49
2023/11/13 04:28:02;;;;;;;6.67;2.47;;;7.10;99.90;;;;;;5032470;28;20026;-50
2023/11/13 04:30:27;;;;;;;6.87;2.77;;;7.00;99.90;;;;;;5031363;28;20033;-49
2023/11/13 04:32:53;;;;;;;6.57;2.20;;;7.00;99.90;;;;;;5032998;28;20405;-53
2023/11/13 04:35:19;;;;;;;7.60;2.77;;;7.00;99.90;;;;;;5032822;28;20402;-52
2023/11/13 04:37:45;;;;;;;9.23;2.67;;;6.90;99.90;;;;;;5032878;28;20384;-53
2023/11/13 04:40:11;;;;;;;6.50;2.60;;;6.90;99.90;;;;;;5032901;28;20064;-54
2023/11/13 04:42:37;;;;;;;9.07;2.63;;;6.90;99.90;;;;;;5033248;28;20041;-49
2023/11/13 04:45:04;;;;;;;5.63;2.70;;;6.90;99.90;;;;;;5033422;28;20045;-50
2023/11/13 04:47:30;;;;;;;6.80;3.03;;;6.90;99.90;;;;;;5032616;28;20053;-50
2023/11/13 04:49:56;;;;;;;6.23;2.67;;;6.90;99.90;;;;;;5032294;28;20083;-50
2023/11/13 04:52:22;;;;;;;6.37;2.80;;;6.90;99.90;;;;;;5031303;28;20074;-49
2023/11/13 04:54:48;;;;;;;5.70;2.70;;;6.90;99.90;;;;;;5032553;28;20029;-52
2023/11/13 04:57:13;;;;;;;5.33;2.83;;;6.90;99.90;;;;;;5031491;28;20440;-49
2023/11/13 04:59:39;;;;;;;5.93;2.60;;;6.90;99.90;;;;;;5032428;28;20079;-50
2023/11/13 05:02:05;;;;;;;4.50;2.57;;;6.90;99.90;;;;;;5033783;28;20067;-50
2023/11/13 05:04:31;;;;;;;5.67;2.70;;;7.00;99.90;;;;;;5032973;28;20393;-50
2023/11/13 05:06:56;;;;;;;7.30;2.70;;;6.90;99.90;;;;;;5032639;28;20034;-49
2023/11/13 05:09:23;;;;;;;5.20;2.67;;;6.90;99.90;;;;;;5032095;28;20040;-50
2023/11/13 05:11:49;;;;;;;7.67;3.27;;;6.90;99.90;;;;;;5035142;28;20033;-49
2023/11/13 05:14:15;;;;;;;5.03;2.90;;;6.90;99.90;;;;;;5036564;28;20029;-53
2023/11/13 05:16:40;;;;;;;6.60;2.67;;;6.90;99.90;;;;;;5036588;28;20432;-49
2023/11/13 05:19:06;;;;;;;6.07;2.70;;;6.90;99.90;;;;;;5036546;28;20031;-49
2023/11/13 05:21:32;;;;;;;7.70;2.73;;;7.00;99.90;;;;;;5035161;28;20386;-49
2023/11/13 05:23:58;;;;;;;6.20;2.80;;;7.00;99.90;;;;;;5036211;28;20436;-50
2023/11/13 05:26:23;;;;;;;6.10;2.57;;;7.00;99.90;;;;;;5036692;28;20116;-49
2023/11/13 05:28:49;;;;;;;6.00;2.90;;;7.00;99.90;;;;;;5036024;28;20033;-51
2023/11/13 05:31:15;;;;;;;6.07;2.93;;;7.00;99.90;;;;;;5036251;28;20098;-50
2023/11/13 05:33:40;;;;;;;7.43;3.07;;;7.10;99.90;;;;;;5035866;28;20034;-50
2023/11/13 05:36:07;;;;;;;6.30;3.57;;;7.10;99.90;;;;;;5036195;28;20143;-49
2023/11/13 05:38:32;;;;;;;8.30;3.60;;;7.10;99.90;;;;;;5035868;28;20021;-50
2023/11/13 05:40:59;;;;;;;7.53;3.70;;;7.20;99.90;;;;;;5035792;28;20492;-51
2023/11/13 05:43:24;;;;;;;7.90;3.20;;;7.20;99.90;;;;;;5035239;28;20025;-50
2023/11/13 05:45:50;;;;;;;5.80;2.73;;;7.30;99.90;;;;;;5035302;28;20035;-52
2023/11/13 05:48:16;;;;;;;6.57;3.10;;;7.30;99.90;;;;;;5035656;28;20037;-54
2023/11/13 05:50:42;;;;;;;7.67;3.40;;;7.30;99.90;;;;;;5035721;28;20112;-54
2023/11/13 05:53:07;;;;;;;6.53;3.57;;;7.40;99.90;;;;;;5035799;28;20068;-55
2023/11/13 05:55:36;;;;;;;8.53;3.13;;;7.40;99.90;;;;;;5035810;28;20025;-54
2023/11/13 05:58:04;;;;;;;8.10;3.67;;;7.30;99.90;;;;;;5035711;28;20044;-52
2023/11/13 06:00:31;;;;;;;13.53;4.33;;;7.40;99.90;;;;;;5035964;28;20025;-53
2023/11/13 06:02:56;;;;;;;7.10;3.60;;;7.50;99.90;;;;;;5035784;28;20441;-52
2023/11/13 06:05:23;;;;;;;8.97;3.80;;;7.50;99.90;;;;;;5035978;28;20029;-53
2023/11/13 06:07:48;;;;;;;10.83;3.73;;;7.60;99.90;;;;;;5035429;28;20033;-54
2023/11/13 06:10:14;;;;;;;10.10;4.43;;;7.60;99.90;;;;;;5035377;28;20029;-54
2023/11/13 06:12:40;;;;;;;11.17;4.53;;;7.70;99.90;;;;;;5035486;28;20406;-49
2023/11/13 06:15:12;;;;;;;10.97;4.67;;;7.70;99.90;;;;;;5035233;28;20037;-54
2023/11/13 06:17:39;;;;;;;9.57;4.77;;;7.80;99.90;;;;;;5035470;28;20057;-49
2023/11/13 06:20:06;;;;;;;9.30;4.60;;;7.80;99.90;;;;;;5035170;28;20248;-55
2023/11/13 06:22:31;;;;;;;8.93;4.50;;;7.80;99.90;;;;;;5034956;28;20114;-52
2023/11/13 06:24:57;;;;;;;7.43;4.10;;;7.80;99.90;;;;;;5035410;28;20469;-51
2023/11/13 06:27:23;;;;;;;8.50;4.33;;;7.80;99.90;;;;;;5033739;28;20040;-51
2023/11/13 06:29:50;;;;;;;13.10;5.50;;;7.90;99.90;;;;;;5035406;28;20037;-55
2023/11/13 06:32:16;;;;;;;13.73;5.50;;;7.90;99.90;;;;;;5035438;28;20120;-53
2023/11/13 06:34:41;;;;;;;15.23;5.73;;;7.90;99.90;;;;;;5034114;28;20498;-51
2023/11/13 06:37:07;;;;;;;12.53;5.30;;;8.00;99.90;;;;;;5035231;28;20045;-51
2023/11/13 06:39:32;;;;;;;18.37;6.40;;;8.00;99.90;;;;;;5034928;28;20542;-51
2023/11/13 06:41:58;;;;;;;12.10;5.47;;;8.00;99.90;;;;;;5035265;28;20033;-51
2023/11/13 06:44:24;;;;;;;10.80;4.57;;;8.10;99.90;;;;;;5034942;28;20079;-54
2023/11/13 06:46:49;;;;;;;14.63;6.23;;;8.20;99.90;;;;;;5035095;28;20041;-54
2023/11/13 06:49:18;;;;;;;19.73;7.10;;;8.30;99.90;;;;;;5034474;28;20065;-51
2023/11/13 06:51:44;;;;;;;15.68;6.10;;;8.30;99.90;;;;;;5034765;28;20044;-52
2023/11/13 06:54:10;;;;;;;15.13;5.60;;;8.30;99.90;;;;;;5033232;28;20041;-52
2023/11/13 06:56:37;;;;;;;14.40;6.07;;;8.40;99.90;;;;;;5034563;28;20038;-54
2023/11/13 06:59:03;;;;;;;13.67;5.90;;;8.40;99.90;;;;;;5034279;28;20053;-53
2023/11/13 07:01:37;;;;;;;14.33;6.27;;;8.40;99.90;;;;;;5035036;28;20029;-53
2023/11/13 07:04:04;;;;;;;17.67;5.93;;;8.50;99.90;;;;;;5033238;28;20087;-51
2023/11/13 07:06:31;;;;;;;11.87;6.17;;;8.50;99.90;;;;;;5034284;28;20126;-51
2023/11/13 07:08:57;;;;;;;14.10;6.07;;;8.60;99.90;;;;;;5034377;28;20044;-50
2023/11/13 07:11:22;;;;;;;14.83;5.80;;;8.50;99.90;;;;;;5034467;28;20034;-51
2023/11/13 07:13:48;;;;;;;10.63;5.47;;;8.50;99.90;;;;;;5033380;28;20030;-50
2023/11/13 07:16:14;;;;;;;14.37;6.53;;;8.50;99.90;;;;;;5033258;28;20485;-54
2023/11/13 07:18:40;;;;;;;15.13;5.23;;;8.60;99.90;;;;;;5033797;28;20072;-50
2023/11/13 07:21:06;;;;;;;12.37;4.90;;;8.70;99.90;;;;;;5034287;28;20032;-52
2023/11/13 07:23:32;;;;;;;9.83;5.10;;;8.70;99.90;;;;;;5034318;28;20436;-50
2023/11/13 07:25:57;;;;;;;12.23;4.80;;;8.70;99.90;;;;;;5034200;28;20029;-54
2023/11/13 07:28:23;;;;;;;9.87;4.83;;;8.70;99.90;;;;;;5033592;28;20517;-54
2023/11/13 07:30:49;;;;;;;13.23;4.97;;;8.60;99.90;;;;;;5034010;28;20041;-52
2023/11/13 07:33:14;;;;;;;9.97;5.00;;;8.60;99.90;;;;;;5033546;28;20052;-50
2023/11/13 07:35:40;;;;;;;10.03;4.37;;;8.60;99.90;;;;;;5033562;28;20029;-52
2023/11/13 07:38:09;;;;;;;9.53;4.83;;;8.70;99.90;;;;;;5033907;28;20536;-55
2023/11/13 07:40:36;;;;;;;8.13;3.50;;;8.70;99.90;;;;;;5033806;28;20037;-54
2023/11/13 07:43:02;;;;;;;8.53;2.93;;;8.80;99.90;;;;;;5033884;28;20079;-50
2023/11/13 07:45:28;;;;;;;7.63;3.80;;;8.90;99.90;;;;;;5033907;28;20417;-49
2023/11/13 07:47:56;;;;;;;10.10;3.90;;;8.90;99.90;;;;;;5033393;28;20040;-53
2023/11/13 07:50:23;;;;;;;11.70;3.87;;;8.90;99.90;;;;;;5033277;28;20083;-53
2023/11/13 07:52:50;;;;;;;8.23;3.60;;;8.90;99.90;;;;;;5032452;28;20033;-50
2023/11/13 07:55:18;;;;;;;10.33;4.23;;;9.00;99.90;;;;;;5033547;28;20128;-52
2023/11/13 07:57:44;;;;;;;8.57;3.87;;;9.00;99.90;;;;;;5033389;28;20087;-51
2023/11/13 08:00:11;;;;;;;9.10;3.60;;;9.00;99.90;;;;;;5033458;28;20026;-54
2023/11/13 08:02:44;;;;;;;10.67;3.80;;;9.00;99.90;;;;;;5033415;28;20044;-54
2023/11/13 08:05:11;;;;;;;12.57;4.23;;;9.10;99.90;;;;;;5033015;28;20041;-54
2023/11/13 08:07:42;;;;;;;10.33;4.47;;;9.10;99.90;;;;;;5033722;28;20482;-55
2023/11/13 08:10:12;;;;;;;8.27;2.90;;;9.10;99.90;;;;;;5032799;28;20037;-54
2023/11/13 08:12:46;;;;;;;8.70;3.90;;;9.10;99.90;;;;;;5033662;28;20037;-55
2023/11/13 08:15:12;;;;;;;7.97;3.03;;;9.20;99.90;;;;;;5033130;28;20034;-55
2023/11/13 08:17:42;;;;;;;14.47;6.27;;;9.20;99.90;;;;;;5033069;28;20032;-53
2023/11/13 08:20:15;;;;;;;17.67;5.73;;;9.10;99.90;;;;;;5033027;28;20044;-53
2023/11/13 08:22:42;;;;;;;10.60;3.83;;;9.10;99.90;;;;;;5031906;28;20029;-52
2023/11/13 08:25:12;;;;;;;5.70;2.80;;;9.10;99.90;;;;;;5031930;28;20033;-53
2023/11/13 08:27:41;;;;;;;6.90;2.83;;;9.20;99.90;;;;;;5033213;28;20037;-55
2023/11/13 08:30:07;;;;;;;;;;;9.20;99.90;;;;;;5033477;28;20037;-55
2023/11/13 08:32:34;;;;;;;10.67;3.60;;;9.20;99.90;;;;;;5033110;28;19919;-50
2023/11/13 08:35:01;;;;;;;9.00;3.00;;;9.20;99.90;;;;;;5032849;28;20060;-54
2023/11/13 08:37:27;;;;;;;6.43;2.70;;;9.20;99.90;;;;;;5032929;28;20372;-54
2023/11/13 08:39:53;;;;;;;7.30;3.17;;;9.20;99.90;;;;;;5032774;28;20032;-53
2023/11/13 08:42:19;;;;;;;8.13;3.13;;;9.20;99.90;;;;;;5032960;28;20490;-53
2023/11/13 08:44:45;;;;;;;7.90;2.67;;;9.30;99.90;;;;;;5032900;28;20030;-52
2023/11/13 08:47:10;;;;;;;13.40;3.30;;;9.20;99.90;;;;;;5032730;28;20032;-55
2023/11/13 08:49:41;;;;;;;6.20;2.47;;;9.30;99.90;;;;;;5032947;28;20183;-55
2023/11/13 08:52:08;;;;;;;8.17;2.70;;;9.30;99.90;;;;;;5033036;28;20490;-52
2023/11/13 08:54:36;;;;;;;9.77;3.60;;;9.30;99.90;;;;;;5033284;28;20048;-53
2023/11/13 08:57:06;;;;;;;11.77;3.73;;;9.30;99.90;;;;;;5032466;28;20072;-54
2023/11/13 08:59:33;;;;;;;10.37;2.97;;;9.30;99.90;;;;;;5033051;28;20029;-55
2023/11/13 09:01:59;;;;;;;9.33;3.20;;;9.30;99.90;;;;;;5033530;28;20021;-56
2023/11/13 09:04:25;;;;;;;6.90;3.03;;;9.30;99.90;;;;;;5033164;28;20524;-53
2023/11/13 09:06:50;;;;;;;8.43;3.10;;;9.30;99.90;;;;;;5033384;28;20037;-55
2023/11/13 09:09:16;;;;;;;8.40;2.70;;;9.30;99.90;;;;;;5031430;28;20057;-55
2023/11/13 09:11:42;;;;;;;7.83;3.27;;;9.30;99.90;;;;;;5033754;28;20033;-54
2023/11/13 09:14:09;;;;;;;8.13;2.57;;;9.30;99.90;;;;;;5033507;28;20033;-53
2023/11/13 09:16:37;;;;;;;6.80;2.70;;;9.30;99.90;;;;;;5032430;28;20038;-55
2023/11/13 09:19:04;;;;;;;10.95;3.08;;;9.30;99.90;;;;;;5033007;28;20076;-55
2023/11/13 09:21:29;;;;;;;8.30;3.37;;;9.40;99.90;;;;;;5033516;28;20029;-51
2023/11/13 09:23:55;;;;;;;7.47;3.20;;;9.40;99.90;;;;;;5033501;28;20076;-55
2023/11/13 09:26:21;;;;;;;7.40;3.13;;;9.30;99.90;;;;;;5033285;28;20038;-54
2023/11/13 09:28:46;;;;;;;5.80;2.50;;;9.40;99.90;;;;;;5033068;28;20125;-54
2023/11/13 09:31:12;;;;;;;6.87;2.73;;;9.40;99.90;;;;;;5033214;28;20053;-50
2023/11/13 09:33:42;;;;;;;9.60;2.97;;;9.40;99.90;;;;;;5032584;28;20037;-55
2023/11/13 09:36:08;;;;;;;10.57;2.50;;;9.40;99.90;;;;;;5032883;28;20041;-54
2023/11/13 09:38:34;;;;;;;6.87;2.50;;;9.50;99.90;;;;;;5032505;28;20116;-51
2023/11/13 09:41:03;;;;;;;4.60;2.23;;;9.50;99.90;;;;;;5032951;28;20041;-51
2023/11/13 09:43:34;;;;;;;6.97;2.40;;;9.40;99.90;;;;;;5033751;28;20033;-53
2023/11/13 09:46:08;;;;;;;5.37;2.30;;;9.50;99.90;;;;;;5032069;28;20037;-54
2023/11/13 09:48:43;;;;;;;7.07;2.13;;;9.50;99.90;;;;;;5033182;28;20033;-54
2023/11/13 09:51:13;;;;;;;6.87;2.47;;;9.50;99.90;;;;;;5032899;28;20460;-53
2023/11/13 09:53:42;;;;;;;9.07;2.40;;;9.50;99.90;;;;;;5033255;28;20574;-53
2023/11/13 09:56:08;;;;;;;;;;;9.60;99.90;;;;;;5033682;28;20470;-56
2023/11/13 09:58:36;;;;;;;6.43;1.63;;;9.60;99.90;;;;;;5036207;28;20061;-56
2023/11/13 10:01:02;;;;;;;6.60;1.70;;;9.50;99.90;;;;;;5036725;28;20112;-56
2023/11/13 10:03:29;;;;;;;6.83;1.70;;;9.60;99.90;;;;;;5036530;28;20053;-53
2023/11/13 10:05:55;;;;;;;5.27;1.80;;;9.60;99.90;;;;;;5036572;28;20037;-52
2023/11/13 10:08:21;;;;;;;3.37;1.20;;;9.60;99.90;;;;;;5035939;28;20518;-54
2023/11/13 10:10:46;;;;;;;5.47;1.50;;;9.60;99.90;;;;;;5035952;28;20029;-56
2023/11/13 10:13:14;;;;;;;3.60;1.60;;;9.60;99.90;;;;;;5035659;28;20360;-56
2023/11/13 10:15:44;;;;;;;6.93;1.57;;;9.60;99.90;;;;;;5036374;28;20038;-55
2023/11/13 10:18:12;;;;;;;5.27;1.50;;;9.60;99.90;;;;;;5035492;28;20104;-55
2023/11/13 10:20:46;;;;;;;4.87;1.40;;;9.60;99.90;;;;;;5036053;28;20032;-54
2023/11/13 10:23:14;;;;;;;3.37;1.17;;;9.60;99.90;;;;;;5035729;28;20120;-53
2023/11/13 10:25:41;;;;;;;4.80;1.47;;;9.60;99.90;;;;;;5034765;28;20482;-54
2023/11/13 10:28:10;;;;;;;2.73;1.53;;;9.60;99.90;;;;;;5036127;28;20485;-54
2023/11/13 10:30:51;;;;;;;5.45;1.85;;;9.60;99.90;;;;;;5033999;28;20475;-55
2023/11/13 10:33:16;;;;;;;4.80;1.30;;;9.60;99.90;;;;;;5035432;28;20393;-54
2023/11/13 10:35:45;;;;;;;3.03;1.23;;;9.70;99.90;;;;;;5035662;28;20032;-56
2023/11/13 10:38:14;;;;;;;6.40;1.20;;;9.70;99.90;;;;;;5035125;28;20138;-53
2023/11/13 10:40:44;;;;;;;2.60;1.10;;;9.70;99.90;;;;;;5035698;28;20068;-53
2023/11/13 10:43:11;;;;;;;9.37;2.40;;;9.70;99.90;;;;;;5035469;28;20026;-53
2023/11/13 10:45:46;;;;;;;3.50;1.17;;;9.70;99.90;;;;;;5035961;28;20116;-53
2023/11/13 10:48:12;;;;;;;4.17;1.13;;;9.80;99.90;;;;;;5035377;28;20037;-54
2023/11/13 10:50:38;;;;;;;3.03;1.00;;;9.80;99.90;;;;;;5035056;28;20069;-50
2023/11/13 10:53:05;;;;;;;2.43;1.63;;;9.90;99.90;;;;;;5035601;28;20034;-50
2023/11/13 10:55:31;;;;;;;3.17;1.00;;;9.90;99.90;;;;;;5034886;28;20033;-55
2023/11/13 10:57:57;;;;;;;4.07;1.40;;;10.00;99.90;;;;;;5035071;28;20029;-51
2023/11/13 11:00:23;;;;;;;3.43;1.20;;;10.10;99.90;;;;;;5035876;28;20029;-52
2023/11/13 11:02:53;;;;;;;3.43;1.43;;;10.10;99.90;;;;;;5017133;28;20033;-55
2023/11/13 11:05:26;;;;;;;4.17;1.10;;;10.20;99.90;;;;;;5035194;28;20034;-54
2023/11/13 11:07:55;;;;;;;4.13;1.17;;;10.20;99.90;;;;;;5034660;28;20526;-54
2023/11/13 11:10:26;;;;;;;5.07;1.80;;;10.30;99.90;;;;;;5034545;28;20121;-54
2023/11/13 11:13:05;;;;;;;4.00;1.40;;;10.40;99.90;;;;;;5034797;28;20037;-52
2023/11/13 11:15:43;;;;;;;2.75;1.45;;;10.40;99.90;;;;;;5034420;28;20401;-53
2023/11/13 11:18:21;;;;;;;2.37;0.80;;;10.40;99.90;;;;;;5034448;28;20531;-55
2023/11/13 11:20:56;;;;;;;2.67;1.00;;;10.40;99.90;;;;;;5034647;28;20474;-51
2023/11/13 11:23:27;;;;;;;2.03;1.00;;;10.40;99.90;;;;;;5034442;28;20064;-54
2023/11/13 11:25:53;;;;;;;4.63;1.10;;;10.50;99.90;;;;;;5034962;28;20040;-51
2023/11/13 11:28:43;;;;;;;2.53;1.03;;;10.60;99.90;;;;;;5034257;28;20033;-55
2023/11/13 11:31:32;;;;;;;2.80;1.30;;;10.70;99.90;;;;;;5034068;28;20027;-55
2023/11/13 11:33:58;;;;;;;2.38;1.00;;;10.70;99.90;;;;;;5033446;28;20033;-54
2023/11/13 11:36:28;;;;;;;2.30;1.20;;;10.70;99.90;;;;;;5034678;28;20152;-55
2023/11/13 11:39:21;;;;;;;3.10;1.00;;;10.80;99.90;;;;;;5033957;28;20067;-54
2023/11/13 11:41:51;;;;;;;2.23;0.90;;;10.70;99.90;;;;;;5034684;28;20021;-56
2023/11/13 11:44:26;;;;;;;3.53;1.30;;;10.80;99.90;;;;;;5034182;28;20025;-52
2023/11/13 11:46:52;;;;;;;3.20;1.07;;;10.80;99.90;;;;;;5034070;28;20029;-56
2023/11/13 11:49:28;;;;;;;2.80;1.40;;;10.90;99.90;;;;;;5033523;28;20034;-56
2023/11/13 11:52:05;;;;;;;1.83;0.93;;;11.00;99.90;;;;;;5034046;28;20041;-52
2023/11/13 11:54:34;;;;;;;4.73;1.57;;;11.10;99.90;;;;;;5033640;28;20040;-53
2023/11/13 11:57:06;;;;;;;2.95;1.10;;;11.10;99.90;;;;;;5034114;28;20489;-52
2023/11/13 11:59:32;;;;;;;2.10;0.80;;;11.10;99.90;;;;;;5033150;28;20030;-55
2023/11/13 12:01:59;;;;;;;2.80;1.10;;;11.20;99.90;;;;;;5033830;28;20037;-52
2023/11/13 12:04:26;;;;;;;3.90;1.00;;;11.20;99.90;;;;;;5033551;28;20038;-54
2023/11/13 12:06:53;;;;;;;4.53;1.10;;;11.30;99.90;;;;;;5032571;28;20037;-54
2023/11/13 12:09:21;;;;;;;4.73;1.37;;;11.30;99.90;;;;;;5033307;28;20056;-54
2023/11/13 12:11:50;;;;;;;4.20;1.50;;;11.30;99.90;;;;;;5033426;28;20045;-55
2023/11/13 12:14:18;;;;;;;2.77;1.40;;;11.30;99.90;;;;;;5033827;28;20045;-56
2023/11/13 12:16:44;;;;;;;6.63;1.57;;;11.30;99.90;;;;;;5032947;28;20036;-55
2023/11/13 12:19:11;;;;;;;4.67;1.63;;;11.30;99.90;;;;;;5031975;28;20439;-52
2023/11/13 12:21:41;;;;;;;4.70;1.40;;;11.30;99.90;;;;;;5033322;28;20021;-54
2023/11/13 12:24:16;;;;;;;4.43;1.50;;;11.30;99.90;;;;;;5033418;28;20040;-56
2023/11/13 12:26:44;;;;;;;2.73;1.30;;;11.40;99.90;;;;;;5033689;28;20375;-55
2023/11/13 12:29:17;;;;;;;4.33;1.33;;;11.40;99.90;;;;;;5033345;28;20124;-54
2023/11/13 12:31:45;;;;;;;4.97;1.40;;;11.40;99.90;;;;;;5034107;28;20037;-56
2023/11/13 12:34:14;;;;;;;4.43;2.00;;;11.40;99.90;;;;;;5033874;28;20072;-55
2023/11/13 12:36:46;;;;;;;4.05;1.55;;;11.40;99.90;;;;;;5033467;28;20030;-52
2023/11/13 12:39:19;;;;;;;3.13;1.50;;;11.40;99.90;;;;;;5033433;28;20040;-56
2023/11/13 12:41:48;;;;;;;3.90;1.30;;;11.50;99.90;;;;;;5034012;28;20026;-55
2023/11/13 12:44:18;;;;;;;5.37;1.60;;;11.50;99.90;;;;;;5034143;28;20033;-55
2023/11/13 12:46:47;;;;;;;5.87;1.47;;;11.50;99.90;;;;;;5033882;28;20112;-54
2023/11/13 12:49:14;;;;;;;4.50;1.48;;;11.50;99.90;;;;;;5032795;28;20034;-54
2023/11/13 12:51:40;;;;;;;6.47;1.40;;;11.50;99.90;;;;;;5033762;28;20057;-51
2023/11/13 12:54:10;;;;;;;4.37;1.77;;;11.60;99.90;;;;;;5032954;28;20131;-56
2023/11/13 12:56:37;;;;;;;7.83;1.40;;;11.60;99.90;;;;;;5033645;28;20627;-56